Terminal Aerodrome Forecast
Issued by NWS Omaha/Valley, NE

Home | Current Version | Previous Version | Graphics & Text | Print | Product List | Glossary On
Versions: 1 2 3 4 5 6 7 8 9 10 11 12 13 14 15
000
FTUS43 KOAX 201129
TAFOFK
TAF
KOFK 201129Z 2012/2112 17006KT P6SM SCT100
     FM202000 10006KT P6SM SCT150
     FM210600 07006KT P6SM BKN050
     FM211000 09005KT 3SM BR BKN020=

USA.gov is the U.S. government's official web portal to all federal, state and local government web resources and services.